MAPA DE AEROPUERTO

INFORMACIÓN METAR y TAF


Deprecated: The each() function is deprecated. This message will be suppressed on further calls in /home/customer/www/clickair-va.com/public_html/VAM/vam/helpers/get_metar.php on line 20
METAR FOR LEMH
ADDS - METARS form results

(2119 UTC 01 October 2022)
Data provider http://aviationweather.gov/metar/data/
 
METAR text: LEMH 012100Z 33003KT CAVOK 17/14 Q1027
Conditions at: LEMH (MAHON/MENORCA IS, ES) observed 2100 UTC 01 October 2022
Temperature: 17.0°C (63°F)
Dewpoint: 14.0°C (57°F) [RH = 82%]
Pressure (altimeter): 30.32 inches Hg (1027.0 mb)
Winds: from the NNW (330 degrees) at 3 MPH (3 knots; 1.5 m/s)
Visibility: 6 or more miles (10+ km)
Ceiling: ceiling and visibility are OK
Clouds: unknown
Weather: no significant weather observed at this time

METAR text: LEMH 012030Z 33003KT CAVOK 18/14 Q1027
Conditions at: LEMH (MAHON/MENORCA IS, ES) observed 2030 UTC 01 October 2022
Temperature: 18.0°C (64°F)
Dewpoint: 14.0°C (57°F) [RH = 77%]
Pressure (altimeter): 30.32 inches Hg (1027.0 mb)
Winds: from the NNW (330 degrees) at 3 MPH (3 knots; 1.5 m/s)
Visibility: 6 or more miles (10+ km)
Ceiling: ceiling and visibility are OK
Clouds: unknown
Weather: no significant weather observed at this time

Forecast for: LEMH (MAHON/MENORCA IS, ES)
Text: TAF LEMH 012000Z 0121/0221 34005KT 9999 FEW025 TX27/0212Z TN17/0205Z
Forecast period: 2100 UTC 01 October 2022 to 0700 UTC 02 October 2022
Forecast type: FROM: standard forecast or significant change
Winds: from the NNW (340 degrees) at 6 MPH (5 knots; 2.6 m/s)
Visibility: 6 or more miles (10+ km)
Ceiling: at least 12,000 feet AGL
Clouds: few clouds at 2500 feet AGL
Weather: no significant weather forecast for this period
Text: BECMG 0207/0209 24010KT
Forecast period: 0700 to 1800 UTC 02 October 2022
Forecast type: BECOMING: Conditions expected to become as follows by 0900 UTC 02 October 2022
Winds: from the WSW (240 degrees) at 12 MPH (10 knots; 5.1 m/s)
Visibility: 6 or more miles (10+ km)
Ceiling: at least 12,000 feet AGL
Clouds: few clouds at 2500 feet AGL
Weather: no significant weather forecast for this period
Text: BECMG 0218/0220 VRB03KT
Forecast period: 1800 to 2100 UTC 02 October 2022
Forecast type: BECOMING: Conditions expected to become as follows by 2000 UTC 02 October 2022
Winds: variable direction winds at 3 MPH (3 knots; 1.5 m/s)
Visibility: 6 or more miles (10+ km)
Ceiling: at least 12,000 feet AGL
Clouds: few clouds at 2500 feet AGL
Weather: no significant weather forecast for this period